sensor_id;sensor_type;location;lat;lon;timestamp;P1;durP1;ratioP1;P2;durP2;ratioP2
63320;SDS011;49449;48.800;9.534;2022-11-24T00:01:09;7.05;;;3.75;;
63320;SDS011;49449;48.800;9.534;2022-11-24T00:03:38;7.57;;;2.97;;
63320;SDS011;49449;48.800;9.534;2022-11-24T00:06:07;5.50;;;3.05;;
63320;SDS011;49449;48.800;9.534;2022-11-24T00:08:36;5.05;;;2.55;;
63320;SDS011;49449;48.800;9.534;2022-11-24T00:11:06;3.63;;;1.92;;
63320;SDS011;49449;48.800;9.534;2022-11-24T00:13:36;3.30;;;2.35;;
63320;SDS011;49449;48.800;9.534;2022-11-24T00:16:06;5.18;;;2.97;;
63320;SDS011;49449;48.800;9.534;2022-11-24T00:18:35;4.63;;;2.42;;
63320;SDS011;49449;48.800;9.534;2022-11-24T00:21:03;4.93;;;2.40;;
63320;SDS011;49449;48.800;9.534;2022-11-24T00:23:32;5.90;;;2.80;;
63320;SDS011;49449;48.800;9.534;2022-11-24T00:26:03;4.97;;;2.47;;
63320;SDS011;49449;48.800;9.534;2022-11-24T00:28:33;4.80;;;2.63;;
63320;SDS011;49449;48.800;9.534;2022-11-24T00:31:03;4.95;;;2.88;;
63320;SDS011;49449;48.800;9.534;2022-11-24T00:33:32;4.13;;;2.60;;
63320;SDS011;49449;48.800;9.534;2022-11-24T00:36:00;3.50;;;2.67;;
63320;SDS011;49449;48.800;9.534;2022-11-24T00:38:28;3.40;;;1.77;;
63320;SDS011;49449;48.800;9.534;2022-11-24T00:40:55;3.10;;;2.17;;
63320;SDS011;49449;48.800;9.534;2022-11-24T00:43:23;3.38;;;2.13;;
63320;SDS011;49449;48.800;9.534;2022-11-24T00:45:51;4.70;;;3.17;;
63320;SDS011;49449;48.800;9.534;2022-11-24T00:48:21;4.03;;;2.55;;
63320;SDS011;49449;48.800;9.534;2022-11-24T00:50:56;6.75;;;3.05;;
63320;SDS011;49449;48.800;9.534;2022-11-24T00:53:24;5.53;;;2.33;;
63320;SDS011;49449;48.800;9.534;2022-11-24T00:55:53;4.57;;;1.80;;
63320;SDS011;49449;48.800;9.534;2022-11-24T00:58:21;2.78;;;1.90;;
63320;SDS011;49449;48.800;9.534;2022-11-24T01:00:50;5.45;;;2.80;;
63320;SDS011;49449;48.800;9.534;2022-11-24T01:03:18;5.50;;;2.50;;
63320;SDS011;49449;48.800;9.534;2022-11-24T01:05:49;5.53;;;2.80;;
63320;SDS011;49449;48.800;9.534;2022-11-24T01:08:16;6.10;;;3.92;;
63320;SDS011;49449;48.800;9.534;2022-11-24T01:10:44;4.55;;;2.92;;
63320;SDS011;49449;48.800;9.534;2022-11-24T01:13:12;7.10;;;3.50;;
63320;SDS011;49449;48.800;9.534;2022-11-24T01:15:40;4.95;;;2.50;;
63320;SDS011;49449;48.800;9.534;2022-11-24T01:18:08;6.68;;;2.85;;
63320;SDS011;49449;48.800;9.534;2022-11-24T01:20:36;5.97;;;3.00;;
63320;SDS011;49449;48.800;9.534;2022-11-24T01:23:05;8.70;;;2.70;;
63320;SDS011;49449;48.800;9.534;2022-11-24T01:25:33;4.43;;;2.30;;
63320;SDS011;49449;48.800;9.534;2022-11-24T01:28:00;8.27;;;2.70;;
63320;SDS011;49449;48.800;9.534;2022-11-24T01:30:28;4.38;;;2.38;;
63320;SDS011;49449;48.800;9.534;2022-11-24T01:32:56;4.30;;;1.88;;
63320;SDS011;49449;48.800;9.534;2022-11-24T01:35:23;5.00;;;2.20;;
63320;SDS011;49449;48.800;9.534;2022-11-24T01:37:51;4.28;;;2.03;;
63320;SDS011;49449;48.800;9.534;2022-11-24T01:40:20;4.70;;;2.72;;
63320;SDS011;49449;48.800;9.534;2022-11-24T01:42:49;4.10;;;2.50;;
63320;SDS011;49449;48.800;9.534;2022-11-24T01:45:29;4.18;;;2.80;;
63320;SDS011;49449;48.800;9.534;2022-11-24T01:48:00;5.28;;;2.35;;
63320;SDS011;49449;48.800;9.534;2022-11-24T01:50:31;5.40;;;2.70;;
63320;SDS011;49449;48.800;9.534;2022-11-24T01:53:00;5.82;;;2.78;;
63320;SDS011;49449;48.800;9.534;2022-11-24T01:55:32;6.57;;;3.33;;
63320;SDS011;49449;48.800;9.534;2022-11-24T01:58:03;7.47;;;2.53;;
63320;SDS011;49449;48.800;9.534;2022-11-24T02:00:32;5.20;;;2.75;;
63320;SDS011;49449;48.800;9.534;2022-11-24T02:03:02;5.43;;;2.67;;
63320;SDS011;49449;48.800;9.534;2022-11-24T02:05:32;7.07;;;2.33;;
63320;SDS011;49449;48.800;9.534;2022-11-24T02:08:06;5.40;;;2.42;;
63320;SDS011;49449;48.800;9.534;2022-11-24T02:10:43;5.43;;;2.40;;
63320;SDS011;49449;48.800;9.534;2022-11-24T02:13:12;5.53;;;2.50;;
63320;SDS011;49449;48.800;9.534;2022-11-24T02:15:41;2.92;;;2.10;;
63320;SDS011;49449;48.800;9.534;2022-11-24T02:18:09;3.65;;;2.20;;
63320;SDS011;49449;48.800;9.534;2022-11-24T02:20:37;5.00;;;2.33;;
63320;SDS011;49449;48.800;9.534;2022-11-24T02:23:08;4.63;;;2.60;;
63320;SDS011;49449;48.800;9.534;2022-11-24T02:25:46;4.40;;;2.75;;
63320;SDS011;49449;48.800;9.534;2022-11-24T02:28:22;5.22;;;2.15;;
63320;SDS011;49449;48.800;9.534;2022-11-24T02:30:55;4.18;;;2.75;;
63320;SDS011;49449;48.800;9.534;2022-11-24T02:33:24;3.05;;;2.40;;
63320;SDS011;49449;48.800;9.534;2022-11-24T02:35:53;5.10;;;1.75;;
63320;SDS011;49449;48.800;9.534;2022-11-24T02:38:27;3.70;;;2.05;;
63320;SDS011;49449;48.800;9.534;2022-11-24T02:40:56;4.60;;;2.30;;
63320;SDS011;49449;48.800;9.534;2022-11-24T02:43:28;6.07;;;2.33;;
63320;SDS011;49449;48.800;9.534;2022-11-24T02:45:58;4.43;;;2.20;;
63320;SDS011;49449;48.800;9.534;2022-11-24T02:48:25;4.30;;;2.03;;
63320;SDS011;49449;48.800;9.534;2022-11-24T02:50:53;6.25;;;2.95;;
63320;SDS011;49449;48.800;9.534;2022-11-24T02:53:21;5.35;;;2.28;;
63320;SDS011;49449;48.800;9.534;2022-11-24T02:55:48;4.30;;;2.55;;
63320;SDS011;49449;48.800;9.534;2022-11-24T02:58:16;4.10;;;2.40;;
63320;SDS011;49449;48.800;9.534;2022-11-24T03:00:45;3.90;;;2.08;;
63320;SDS011;49449;48.800;9.534;2022-11-24T03:03:13;3.92;;;2.45;;
63320;SDS011;49449;48.800;9.534;2022-11-24T03:05:41;6.25;;;1.90;;
63320;SDS011;49449;48.800;9.534;2022-11-24T03:08:08;4.53;;;2.10;;
63320;SDS011;49449;48.800;9.534;2022-11-24T03:10:38;3.42;;;2.40;;
63320;SDS011;49449;48.800;9.534;2022-11-24T03:13:05;4.65;;;2.03;;
63320;SDS011;49449;48.800;9.534;2022-11-24T03:15:33;4.03;;;2.78;;
63320;SDS011;49449;48.800;9.534;2022-11-24T03:18:02;3.55;;;1.85;;
63320;SDS011;49449;48.800;9.534;2022-11-24T03:20:30;4.07;;;1.70;;
63320;SDS011;49449;48.800;9.534;2022-11-24T03:22:58;3.97;;;2.33;;
63320;SDS011;49449;48.800;9.534;2022-11-24T03:25:26;4.80;;;2.35;;
63320;SDS011;49449;48.800;9.534;2022-11-24T03:27:54;4.65;;;2.70;;
63320;SDS011;49449;48.800;9.534;2022-11-24T03:30:22;3.45;;;1.85;;
63320;SDS011;49449;48.800;9.534;2022-11-24T03:32:50;5.57;;;2.13;;
63320;SDS011;49449;48.800;9.534;2022-11-24T03:35:20;2.47;;;1.73;;
63320;SDS011;49449;48.800;9.534;2022-11-24T03:37:49;5.22;;;2.42;;
63320;SDS011;49449;48.800;9.534;2022-11-24T03:40:17;5.25;;;2.38;;
63320;SDS011;49449;48.800;9.534;2022-11-24T03:42:44;3.20;;;2.40;;
63320;SDS011;49449;48.800;9.534;2022-11-24T03:45:12;3.42;;;1.90;;
63320;SDS011;49449;48.800;9.534;2022-11-24T03:47:55;3.35;;;1.90;;
63320;SDS011;49449;48.800;9.534;2022-11-24T03:50:24;6.32;;;2.42;;
63320;SDS011;49449;48.800;9.534;2022-11-24T03:52:52;3.08;;;2.03;;
63320;SDS011;49449;48.800;9.534;2022-11-24T03:55:20;2.00;;;1.80;;
63320;SDS011;49449;48.800;9.534;2022-11-24T03:57:47;3.33;;;1.77;;
63320;SDS011;49449;48.800;9.534;2022-11-24T04:00:16;5.72;;;2.20;;
63320;SDS011;49449;48.800;9.534;2022-11-24T04:02:44;2.80;;;1.80;;
63320;SDS011;49449;48.800;9.534;2022-11-24T04:05:13;5.47;;;1.90;;
63320;SDS011;49449;48.800;9.534;2022-11-24T04:07:42;4.45;;;1.83;;
63320;SDS011;49449;48.800;9.534;2022-11-24T04:10:10;4.07;;;2.17;;
63320;SDS011;49449;48.800;9.534;2022-11-24T04:12:37;2.20;;;2.00;;
63320;SDS011;49449;48.800;9.534;2022-11-24T04:15:10;2.08;;;1.65;;
63320;SDS011;49449;48.800;9.534;2022-11-24T04:17:42;4.38;;;2.05;;
63320;SDS011;49449;48.800;9.534;2022-11-24T04:20:10;3.53;;;1.85;;
63320;SDS011;49449;48.800;9.534;2022-11-24T04:22:38;7.25;;;2.08;;
63320;SDS011;49449;48.800;9.534;2022-11-24T04:25:08;3.78;;;2.45;;
63320;SDS011;49449;48.800;9.534;2022-11-24T04:27:36;5.05;;;2.05;;
63320;SDS011;49449;48.800;9.534;2022-11-24T04:30:05;4.95;;;1.52;;
63320;SDS011;49449;48.800;9.534;2022-11-24T04:32:34;4.47;;;2.03;;
63320;SDS011;49449;48.800;9.534;2022-11-24T04:35:02;4.00;;;2.00;;
63320;SDS011;49449;48.800;9.534;2022-11-24T04:37:30;4.47;;;2.00;;
63320;SDS011;49449;48.800;9.534;2022-11-24T04:39:58;3.92;;;2.20;;
63320;SDS011;49449;48.800;9.534;2022-11-24T04:42:27;4.82;;;2.25;;
63320;SDS011;49449;48.800;9.534;2022-11-24T04:44:55;4.95;;;2.10;;
63320;SDS011;49449;48.800;9.534;2022-11-24T04:47:23;2.92;;;1.95;;
63320;SDS011;49449;48.800;9.534;2022-11-24T04:49:52;5.85;;;2.00;;
63320;SDS011;49449;48.800;9.534;2022-11-24T04:52:21;5.57;;;2.33;;
63320;SDS011;49449;48.800;9.534;2022-11-24T04:54:50;5.05;;;2.28;;
63320;SDS011;49449;48.800;9.534;2022-11-24T04:57:20;4.68;;;2.15;;
63320;SDS011;49449;48.800;9.534;2022-11-24T04:59:50;5.93;;;2.38;;
63320;SDS011;49449;48.800;9.534;2022-11-24T05:02:19;5.10;;;2.30;;
63320;SDS011;49449;48.800;9.534;2022-11-24T05:04:47;7.10;;;2.80;;
63320;SDS011;49449;48.800;9.534;2022-11-24T05:07:15;4.72;;;2.00;;
63320;SDS011;49449;48.800;9.534;2022-11-24T05:09:44;7.45;;;2.53;;
63320;SDS011;49449;48.800;9.534;2022-11-24T05:12:30;7.25;;;2.50;;
63320;SDS011;49449;48.800;9.534;2022-11-24T05:14:59;5.38;;;2.22;;
63320;SDS011;49449;48.800;9.534;2022-11-24T05:17:29;3.95;;;1.70;;
63320;SDS011;49449;48.800;9.534;2022-11-24T05:19:57;6.43;;;2.70;;
63320;SDS011;49449;48.800;9.534;2022-11-24T05:22:27;4.28;;;2.08;;
63320;SDS011;49449;48.800;9.534;2022-11-24T05:24:55;8.43;;;2.45;;
63320;SDS011;49449;48.800;9.534;2022-11-24T05:27:23;6.28;;;2.50;;
63320;SDS011;49449;48.800;9.534;2022-11-24T05:29:51;6.25;;;2.63;;
63320;SDS011;49449;48.800;9.534;2022-11-24T05:32:22;4.57;;;2.42;;
63320;SDS011;49449;48.800;9.534;2022-11-24T05:34:50;4.55;;;2.03;;
63320;SDS011;49449;48.800;9.534;2022-11-24T05:37:19;4.78;;;1.55;;
63320;SDS011;49449;48.800;9.534;2022-11-24T05:39:46;7.13;;;2.40;;
63320;SDS011;49449;48.800;9.534;2022-11-24T05:42:14;4.85;;;1.98;;
63320;SDS011;49449;48.800;9.534;2022-11-24T05:45:00;4.72;;;2.38;;
63320;SDS011;49449;48.800;9.534;2022-11-24T05:47:30;4.38;;;2.20;;
63320;SDS011;49449;48.800;9.534;2022-11-24T05:49:57;5.60;;;2.10;;
63320;SDS011;49449;48.800;9.534;2022-11-24T05:52:25;5.68;;;1.80;;
63320;SDS011;49449;48.800;9.534;2022-11-24T05:54:53;5.00;;;1.60;;
63320;SDS011;49449;48.800;9.534;2022-11-24T05:57:21;6.15;;;2.58;;
63320;SDS011;49449;48.800;9.534;2022-11-24T05:59:48;3.15;;;2.22;;
63320;SDS011;49449;48.800;9.534;2022-11-24T06:02:16;9.35;;;2.80;;
63320;SDS011;49449;48.800;9.534;2022-11-24T06:04:45;5.38;;;2.47;;
63320;SDS011;49449;48.800;9.534;2022-11-24T06:07:13;7.15;;;2.67;;
63320;SDS011;49449;48.800;9.534;2022-11-24T06:09:41;8.32;;;2.63;;
63320;SDS011;49449;48.800;9.534;2022-11-24T06:12:09;7.20;;;2.80;;
63320;SDS011;49449;48.800;9.534;2022-11-24T06:14:38;7.13;;;2.65;;
63320;SDS011;49449;48.800;9.534;2022-11-24T06:17:06;6.95;;;2.65;;
63320;SDS011;49449;48.800;9.534;2022-11-24T06:19:36;5.32;;;2.55;;
63320;SDS011;49449;48.800;9.534;2022-11-24T06:22:08;7.25;;;2.20;;
63320;SDS011;49449;48.800;9.534;2022-11-24T06:24:35;6.60;;;2.28;;
63320;SDS011;49449;48.800;9.534;2022-11-24T06:27:03;5.82;;;2.47;;
63320;SDS011;49449;48.800;9.534;2022-11-24T06:29:32;8.27;;;2.00;;
63320;SDS011;49449;48.800;9.534;2022-11-24T06:31:59;8.52;;;2.63;;
63320;SDS011;49449;48.800;9.534;2022-11-24T06:34:27;4.85;;;2.05;;
63320;SDS011;49449;48.800;9.534;2022-11-24T06:36:55;4.78;;;2.22;;
63320;SDS011;49449;48.800;9.534;2022-11-24T06:39:24;7.15;;;1.92;;
63320;SDS011;49449;48.800;9.534;2022-11-24T06:41:52;5.60;;;1.85;;
63320;SDS011;49449;48.800;9.534;2022-11-24T06:44:20;4.00;;;1.92;;
63320;SDS011;49449;48.800;9.534;2022-11-24T06:46:48;5.10;;;2.17;;
63320;SDS011;49449;48.800;9.534;2022-11-24T06:49:16;8.38;;;2.72;;
63320;SDS011;49449;48.800;9.534;2022-11-24T06:51:44;7.00;;;2.50;;
63320;SDS011;49449;48.800;9.534;2022-11-24T06:54:12;4.97;;;2.10;;
63320;SDS011;49449;48.800;9.534;2022-11-24T06:56:43;8.23;;;2.13;;
63320;SDS011;49449;48.800;9.534;2022-11-24T06:59:13;8.45;;;2.75;;
63320;SDS011;49449;48.800;9.534;2022-11-24T07:01:43;6.65;;;2.25;;
63320;SDS011;49449;48.800;9.534;2022-11-24T07:04:11;8.02;;;2.20;;
63320;SDS011;49449;48.800;9.534;2022-11-24T07:06:39;7.97;;;2.80;;
63320;SDS011;49449;48.800;9.534;2022-11-24T07:09:07;8.05;;;2.55;;
63320;SDS011;49449;48.800;9.534;2022-11-24T07:11:35;4.82;;;2.35;;
63320;SDS011;49449;48.800;9.534;2022-11-24T07:14:04;8.95;;;3.03;;
63320;SDS011;49449;48.800;9.534;2022-11-24T07:16:33;6.97;;;2.20;;
63320;SDS011;49449;48.800;9.534;2022-11-24T07:19:00;9.35;;;2.50;;
63320;SDS011;49449;48.800;9.534;2022-11-24T07:21:28;10.88;;;2.80;;
63320;SDS011;49449;48.800;9.534;2022-11-24T07:23:56;7.07;;;2.03;;
63320;SDS011;49449;48.800;9.534;2022-11-24T07:26:24;6.18;;;2.72;;
63320;SDS011;49449;48.800;9.534;2022-11-24T07:28:52;10.80;;;2.80;;
63320;SDS011;49449;48.800;9.534;2022-11-24T07:31:21;6.53;;;2.25;;
63320;SDS011;49449;48.800;9.534;2022-11-24T07:33:51;8.32;;;2.65;;
63320;SDS011;49449;48.800;9.534;2022-11-24T07:36:20;8.52;;;2.45;;
63320;SDS011;49449;48.800;9.534;2022-11-24T07:38:48;7.07;;;2.33;;
63320;SDS011;49449;48.800;9.534;2022-11-24T07:41:17;10.32;;;2.65;;
63320;SDS011;49449;48.800;9.534;2022-11-24T07:43:46;4.35;;;2.53;;
63320;SDS011;49449;48.800;9.534;2022-11-24T07:46:15;7.40;;;2.95;;
63320;SDS011;49449;48.800;9.534;2022-11-24T07:48:45;7.07;;;2.53;;
63320;SDS011;49449;48.800;9.534;2022-11-24T07:51:13;5.25;;;2.72;;
63320;SDS011;49449;48.800;9.534;2022-11-24T07:53:42;12.45;;;4.68;;
63320;SDS011;49449;48.800;9.534;2022-11-24T07:56:10;11.00;;;5.38;;
63320;SDS011;49449;48.800;9.534;2022-11-24T07:58:37;5.80;;;2.80;;
63320;SDS011;49449;48.800;9.534;2022-11-24T08:01:09;5.53;;;2.33;;
63320;SDS011;49449;48.800;9.534;2022-11-24T08:03:38;8.18;;;2.38;;
63320;SDS011;49449;48.800;9.534;2022-11-24T08:06:08;5.97;;;2.05;;
63320;SDS011;49449;48.800;9.534;2022-11-24T08:08:54;6.00;;;2.70;;
63320;SDS011;49449;48.800;9.534;2022-11-24T08:11:22;4.50;;;2.40;;
63320;SDS011;49449;48.800;9.534;2022-11-24T08:13:51;5.60;;;2.75;;
63320;SDS011;49449;48.800;9.534;2022-11-24T08:16:19;7.07;;;2.10;;
63320;SDS011;49449;48.800;9.534;2022-11-24T08:18:50;9.68;;;3.10;;
63320;SDS011;49449;48.800;9.534;2022-11-24T08:21:21;5.50;;;2.10;;
63320;SDS011;49449;48.800;9.534;2022-11-24T08:23:52;4.45;;;2.55;;
63320;SDS011;49449;48.800;9.534;2022-11-24T08:26:21;6.70;;;2.20;;
63320;SDS011;49449;48.800;9.534;2022-11-24T08:28:51;6.68;;;2.70;;
63320;SDS011;49449;48.800;9.534;2022-11-24T08:31:21;9.25;;;3.92;;
63320;SDS011;49449;48.800;9.534;2022-11-24T08:33:50;8.43;;;2.35;;
63320;SDS011;49449;48.800;9.534;2022-11-24T08:36:17;10.85;;;2.75;;
63320;SDS011;49449;48.800;9.534;2022-11-24T08:38:47;9.10;;;2.40;;
63320;SDS011;49449;48.800;9.534;2022-11-24T08:41:15;6.22;;;2.20;;
63320;SDS011;49449;48.800;9.534;2022-11-24T08:43:43;8.07;;;3.10;;
63320;SDS011;49449;48.800;9.534;2022-11-24T08:46:12;7.93;;;3.10;;
63320;SDS011;49449;48.800;9.534;2022-11-24T08:48:42;8.98;;;3.03;;
63320;SDS011;49449;48.800;9.534;2022-11-24T08:51:11;7.97;;;2.80;;
63320;SDS011;49449;48.800;9.534;2022-11-24T08:53:40;8.48;;;3.03;;
63320;SDS011;49449;48.800;9.534;2022-11-24T08:56:10;6.78;;;2.70;;
63320;SDS011;49449;48.800;9.534;2022-11-24T08:58:39;8.43;;;2.70;;
63320;SDS011;49449;48.800;9.534;2022-11-24T09:01:08;5.05;;;2.47;;
63320;SDS011;49449;48.800;9.534;2022-11-24T09:03:37;3.97;;;2.08;;
63320;SDS011;49449;48.800;9.534;2022-11-24T09:06:08;6.10;;;2.38;;
63320;SDS011;49449;48.800;9.534;2022-11-24T09:08:39;4.25;;;2.60;;
63320;SDS011;49449;48.800;9.534;2022-11-24T09:11:09;3.33;;;1.90;;
63320;SDS011;49449;48.800;9.534;2022-11-24T09:13:40;5.43;;;2.63;;
63320;SDS011;49449;48.800;9.534;2022-11-24T09:16:10;3.10;;;2.03;;
63320;SDS011;49449;48.800;9.534;2022-11-24T09:18:40;4.70;;;2.70;;
63320;SDS011;49449;48.800;9.534;2022-11-24T09:21:08;6.53;;;2.50;;
63320;SDS011;49449;48.800;9.534;2022-11-24T09:23:37;5.97;;;2.33;;
63320;SDS011;49449;48.800;9.534;2022-11-24T09:26:06;4.72;;;2.40;;
63320;SDS011;49449;48.800;9.534;2022-11-24T09:28:39;4.68;;;2.10;;
63320;SDS011;49449;48.800;9.534;2022-11-24T09:31:08;4.68;;;2.05;;
63320;SDS011;49449;48.800;9.534;2022-11-24T09:33:37;6.15;;;2.50;;
63320;SDS011;49449;48.800;9.534;2022-11-24T09:36:06;9.98;;;3.92;;
63320;SDS011;49449;48.800;9.534;2022-11-24T09:38:34;7.68;;;3.20;;
63320;SDS011;49449;48.800;9.534;2022-11-24T09:41:05;5.45;;;2.70;;
63320;SDS011;49449;48.800;9.534;2022-11-24T09:43:51;5.75;;;3.03;;
63320;SDS011;49449;48.800;9.534;2022-11-24T09:46:27;4.10;;;2.72;;
63320;SDS011;49449;48.800;9.534;2022-11-24T09:48:59;4.03;;;1.92;;
63320;SDS011;49449;48.800;9.534;2022-11-24T09:51:29;4.60;;;2.47;;
63320;SDS011;49449;48.800;9.534;2022-11-24T09:53:59;3.58;;;2.25;;
63320;SDS011;49449;48.800;9.534;2022-11-24T09:56:30;5.63;;;2.05;;
63320;SDS011;49449;48.800;9.534;2022-11-24T09:59:03;3.95;;;2.00;;
63320;SDS011;49449;48.800;9.534;2022-11-24T10:01:39;6.15;;;2.90;;
63320;SDS011;49449;48.800;9.534;2022-11-24T10:04:11;4.88;;;2.15;;
63320;SDS011;49449;48.800;9.534;2022-11-24T10:06:43;4.25;;;2.42;;
63320;SDS011;49449;48.800;9.534;2022-11-24T10:09:27;2.45;;;1.90;;
63320;SDS011;49449;48.800;9.534;2022-11-24T10:14:58;4.10;;;2.17;;
63320;SDS011;49449;48.800;9.534;2022-11-24T10:17:48;4.18;;;2.30;;
63320;SDS011;49449;48.800;9.534;2022-11-24T10:20:46;3.63;;;2.30;;
63320;SDS011;49449;48.800;9.534;2022-11-24T10:23:25;3.90;;;2.03;;
63320;SDS011;49449;48.800;9.534;2022-11-24T10:26:06;4.45;;;2.38;;
63320;SDS011;49449;48.800;9.534;2022-11-24T10:28:39;5.00;;;2.45;;
63320;SDS011;49449;48.800;9.534;2022-11-24T10:31:21;4.80;;;2.47;;
63320;SDS011;49449;48.800;9.534;2022-11-24T10:33:50;2.83;;;2.20;;
63320;SDS011;49449;48.800;9.534;2022-11-24T10:36:19;3.95;;;2.25;;
63320;SDS011;49449;48.800;9.534;2022-11-24T10:38:54;3.13;;;2.15;;
63320;SDS011;49449;48.800;9.534;2022-11-24T10:41:32;3.22;;;1.60;;
63320;SDS011;49449;48.800;9.534;2022-11-24T10:44:10;3.10;;;1.85;;
63320;SDS011;49449;48.800;9.534;2022-11-24T10:46:40;3.03;;;2.13;;
63320;SDS011;49449;48.800;9.534;2022-11-24T10:49:12;3.97;;;2.13;;
63320;SDS011;49449;48.800;9.534;2022-11-24T10:51:50;4.55;;;2.13;;
63320;SDS011;49449;48.800;9.534;2022-11-24T10:54:27;2.72;;;2.13;;
63320;SDS011;49449;48.800;9.534;2022-11-24T10:56:55;2.47;;;2.28;;
63320;SDS011;49449;48.800;9.534;2022-11-24T10:59:30;3.33;;;2.28;;
63320;SDS011;49449;48.800;9.534;2022-11-24T11:08:00;2.25;;;2.03;;
63320;SDS011;49449;48.800;9.534;2022-11-24T11:10:43;2.10;;;1.48;;
63320;SDS011;49449;48.800;9.534;2022-11-24T11:13:21;3.88;;;2.00;;
63320;SDS011;49449;48.800;9.534;2022-11-24T11:15:50;3.10;;;1.50;;
63320;SDS011;49449;48.800;9.534;2022-11-24T11:18:20;4.68;;;1.63;;
63320;SDS011;49449;48.800;9.534;2022-11-24T11:20:49;1.77;;;1.58;;
63320;SDS011;49449;48.800;9.534;2022-11-24T11:23:20;1.80;;;1.60;;
63320;SDS011;49449;48.800;9.534;2022-11-24T11:28:57;1.38;;;1.27;;
63320;SDS011;49449;48.800;9.534;2022-11-24T11:31:56;1.10;;;1.00;;
63320;SDS011;49449;48.800;9.534;2022-11-24T11:34:48;0.95;;;0.95;;
63320;SDS011;49449;48.800;9.534;2022-11-24T11:37:17;1.05;;;0.98;;
63320;SDS011;49449;48.800;9.534;2022-11-24T11:39:47;2.90;;;0.98;;
63320;SDS011;49449;48.800;9.534;2022-11-24T11:42:17;4.05;;;1.25;;
63320;SDS011;49449;48.800;9.534;2022-11-24T11:45:11;1.10;;;1.10;;
63320;SDS011;49449;48.800;9.534;2022-11-24T11:47:43;3.22;;;1.55;;
63320;SDS011;49449;48.800;9.534;2022-11-24T11:50:18;1.05;;;0.88;;
63320;SDS011;49449;48.800;9.534;2022-11-24T11:52:54;1.65;;;1.40;;
63320;SDS011;49449;48.800;9.534;2022-11-24T11:55:32;1.40;;;1.33;;
63320;SDS011;49449;48.800;9.534;2022-11-24T11:58:15;1.50;;;1.40;;
63320;SDS011;49449;48.800;9.534;2022-11-24T12:00:57;1.60;;;0.93;;
63320;SDS011;49449;48.800;9.534;2022-11-24T12:03:32;1.17;;;1.00;;
63320;SDS011;49449;48.800;9.534;2022-11-24T12:06:21;1.52;;;1.00;;
63320;SDS011;49449;48.800;9.534;2022-11-24T12:09:04;1.48;;;1.35;;
63320;SDS011;49449;48.800;9.534;2022-11-24T12:11:47;2.85;;;1.17;;
63320;SDS011;49449;48.800;9.534;2022-11-24T12:14:23;1.65;;;1.38;;
63320;SDS011;49449;48.800;9.534;2022-11-24T12:17:00;2.83;;;1.48;;
63320;SDS011;49449;48.800;9.534;2022-11-24T12:19:36;1.90;;;1.35;;
63320;SDS011;49449;48.800;9.534;2022-11-24T12:22:19;2.10;;;1.40;;
63320;SDS011;49449;48.800;9.534;2022-11-24T12:25:00;1.42;;;1.40;;
63320;SDS011;49449;48.800;9.534;2022-11-24T12:27:41;1.85;;;1.55;;
63320;SDS011;49449;48.800;9.534;2022-11-24T12:30:16;2.38;;;1.38;;
63320;SDS011;49449;48.800;9.534;2022-11-24T12:35:38;5.60;;;1.23;;
63320;SDS011;49449;48.800;9.534;2022-11-24T12:38:13;2.47;;;1.15;;
63320;SDS011;49449;48.800;9.534;2022-11-24T12:40:59;2.63;;;2.08;;
63320;SDS011;49449;48.800;9.534;2022-11-24T12:43:56;4.10;;;1.80;;
63320;SDS011;49449;48.800;9.534;2022-11-24T12:46:27;3.60;;;1.63;;
63320;SDS011;49449;48.800;9.534;2022-11-24T12:49:05;3.00;;;1.45;;
63320;SDS011;49449;48.800;9.534;2022-11-24T12:51:45;3.15;;;1.65;;
63320;SDS011;49449;48.800;9.534;2022-11-24T12:54:18;3.42;;;1.38;;
63320;SDS011;49449;48.800;9.534;2022-11-24T12:56:48;2.28;;;1.60;;
63320;SDS011;49449;48.800;9.534;2022-11-24T12:59:26;4.18;;;1.92;;
63320;SDS011;49449;48.800;9.534;2022-11-24T13:02:02;1.73;;;1.60;;
63320;SDS011;49449;48.800;9.534;2022-11-24T13:04:41;3.50;;;1.50;;
63320;SDS011;49449;48.800;9.534;2022-11-24T13:07:14;3.10;;;2.22;;
63320;SDS011;49449;48.800;9.534;2022-11-24T13:12:53;1.98;;;1.63;;
63320;SDS011;49449;48.800;9.534;2022-11-24T13:15:22;1.83;;;1.52;;
63320;SDS011;49449;48.800;9.534;2022-11-24T13:18:19;2.55;;;1.30;;
63320;SDS011;49449;48.800;9.534;2022-11-24T13:24:01;1.75;;;1.52;;
63320;SDS011;49449;48.800;9.534;2022-11-24T13:26:42;2.97;;;1.35;;
63320;SDS011;49449;48.800;9.534;2022-11-24T13:35:03;4.10;;;1.73;;
63320;SDS011;49449;48.800;9.534;2022-11-24T13:37:43;2.40;;;1.70;;
63320;SDS011;49449;48.800;9.534;2022-11-24T13:43:18;5.35;;;1.92;;
63320;SDS011;49449;48.800;9.534;2022-11-24T13:45:51;4.18;;;1.88;;
63320;SDS011;49449;48.800;9.534;2022-11-24T13:51:25;4.22;;;2.55;;
63320;SDS011;49449;48.800;9.534;2022-11-24T13:53:53;4.32;;;1.98;;
63320;SDS011;49449;48.800;9.534;2022-11-24T13:56:27;2.70;;;2.20;;
63320;SDS011;49449;48.800;9.534;2022-11-24T13:58:58;2.17;;;1.92;;
63320;SDS011;49449;48.800;9.534;2022-11-24T14:01:30;3.28;;;2.17;;
63320;SDS011;49449;48.800;9.534;2022-11-24T14:04:05;3.00;;;2.00;;
63320;SDS011;49449;48.800;9.534;2022-11-24T14:06:59;4.35;;;2.10;;
63320;SDS011;49449;48.800;9.534;2022-11-24T14:09:34;5.97;;;2.85;;
63320;SDS011;49449;48.800;9.534;2022-11-24T14:12:11;5.90;;;2.45;;
63320;SDS011;49449;48.800;9.534;2022-11-24T14:14:41;4.88;;;2.38;;
63320;SDS011;49449;48.800;9.534;2022-11-24T14:17:18;6.45;;;1.98;;
63320;SDS011;49449;48.800;9.534;2022-11-24T14:19:48;4.05;;;2.20;;
63320;SDS011;49449;48.800;9.534;2022-11-24T14:22:18;4.93;;;1.70;;
63320;SDS011;49449;48.800;9.534;2022-11-24T14:24:52;4.50;;;1.70;;
63320;SDS011;49449;48.800;9.534;2022-11-24T14:27:23;3.30;;;1.88;;
63320;SDS011;49449;48.800;9.534;2022-11-24T14:29:56;2.92;;;1.80;;
63320;SDS011;49449;48.800;9.534;2022-11-24T14:32:27;1.98;;;1.60;;
63320;SDS011;49449;48.800;9.534;2022-11-24T14:34:55;3.83;;;1.48;;
63320;SDS011;49449;48.800;9.534;2022-11-24T14:37:23;3.25;;;1.55;;
63320;SDS011;49449;48.800;9.534;2022-11-24T14:39:51;3.80;;;1.27;;
63320;SDS011;49449;48.800;9.534;2022-11-24T14:42:20;4.97;;;1.45;;
63320;SDS011;49449;48.800;9.534;2022-11-24T14:44:50;5.05;;;2.35;;
63320;SDS011;49449;48.800;9.534;2022-11-24T14:47:27;4.07;;;2.05;;
63320;SDS011;49449;48.800;9.534;2022-11-24T14:50:05;4.55;;;2.08;;
63320;SDS011;49449;48.800;9.534;2022-11-24T14:52:40;5.72;;;2.28;;
63320;SDS011;49449;48.800;9.534;2022-11-24T14:55:22;4.75;;;2.55;;
63320;SDS011;49449;48.800;9.534;2022-11-24T14:57:52;5.00;;;1.70;;
63320;SDS011;49449;48.800;9.534;2022-11-24T15:00:24;3.53;;;1.80;;
63320;SDS011;49449;48.800;9.534;2022-11-24T15:03:06;4.45;;;2.03;;
63320;SDS011;49449;48.800;9.534;2022-11-24T15:05:50;4.97;;;1.80;;
63320;SDS011;49449;48.800;9.534;2022-11-24T15:08:21;5.18;;;2.05;;
63320;SDS011;49449;48.800;9.534;2022-11-24T15:10:54;4.78;;;1.80;;
63320;SDS011;49449;48.800;9.534;2022-11-24T15:13:24;4.30;;;1.58;;
63320;SDS011;49449;48.800;9.534;2022-11-24T15:16:00;3.35;;;2.15;;
63320;SDS011;49449;48.800;9.534;2022-11-24T15:18:34;4.65;;;2.20;;
63320;SDS011;49449;48.800;9.534;2022-11-24T15:21:05;4.00;;;2.22;;
63320;SDS011;49449;48.800;9.534;2022-11-24T15:23:35;2.35;;;2.15;;
63320;SDS011;49449;48.800;9.534;2022-11-24T15:28:59;5.10;;;2.33;;
63320;SDS011;49449;48.800;9.534;2022-11-24T15:31:27;4.72;;;2.53;;
63320;SDS011;49449;48.800;9.534;2022-11-24T15:33:57;6.05;;;2.53;;
63320;SDS011;49449;48.800;9.534;2022-11-24T15:36:25;5.43;;;2.75;;
63320;SDS011;49449;48.800;9.534;2022-11-24T15:38:53;6.05;;;2.72;;
63320;SDS011;49449;48.800;9.534;2022-11-24T15:41:27;4.05;;;2.30;;
63320;SDS011;49449;48.800;9.534;2022-11-24T15:43:57;4.43;;;2.28;;
63320;SDS011;49449;48.800;9.534;2022-11-24T15:46:26;4.63;;;2.28;;
63320;SDS011;49449;48.800;9.534;2022-11-24T15:48:54;4.50;;;2.20;;